Jonestown, Texas
Current Conditions -  °F | °C
As of 7:35 AM on Sunday 23 Nov 2014 (Local Time) from KRYW Reporting Station
Clear Clear  
Wind Chill: 55°   Ceiling: Unl
Heat Index: 55°   Visibility: 10mi
Dew Point: 54°   Wind: 7mph
Humidity: 94%   Direction: 260°W
Pressure: 29.68"   Gusts: NA
Location:  30.4521°N, 97.9683°W
Report Text: KRYW 231335Z AUTO 26006KT 10SM CLR 13/12 A2968 RMK AO2 P0001 T01300120
Loading
Personal Weather Stations






























Interactive Weather Map New forecast layout! Learn more

10-Day Weather Forecast

Advertisements
Track Severe Weather on mobile